• Join FlightAware (Why Join?)
  • Login
  • US Flag 
12:12AM EDT


 

Airport Tracker/Info


-or-


 

Live Flight TrackerFlight Track Log ✈ IRO7601 ✈ 23-Apr-2013 ✈ KTVC - KGRR

Flight Track Log - Related Links

Times and Time Zones

All times are in EDT time to prevent confusion due to time zone crossing. See the IRO7601 flight status page for this flight to view local times or setup timezone preferences in your user account.

Time Position Orientation Groundspeed Altitude Reporting Facility
EDT Latitude Longitude Course Direction KTS MPH feet Rate Location/Type
07:54PM 44.7350 -85.6228 176° South 95 109 1,400  Level Minneapolis Center
07:55PM 44.6986 -85.6286 187° South 127 146 2,200 660 Climbing Minneapolis Center
07:56PM 44.6617 -85.6272 178° South 130 150 2,800 540 Climbing Minneapolis Center
07:57PM 44.6239 -85.6264 179° South 133 153 3,400 600 Climbing Minneapolis Center
07:58PM 44.5276 -85.5753 180° South  Level Estimated
07:58PM 44.5875 -85.6231 176° South 133 153 4,100  Level Minneapolis Center
07:59PM 44.4920 -85.5721 176° South  Level FlightAware Approximate
07:59PM 44.5483 -85.6206 177° South 125 144 4,800  Level Minneapolis Center
08:00PM 44.5186 -85.6186 177° South 117 135 5,400 420 Climbing Minneapolis Center
08:01PM 44.4878 -85.6164 177° South 112 129 5,800 420 Climbing Minneapolis Center
08:02PM 44.4506 -85.6144 178° South 112 129 6,400 540 Climbing Minneapolis Center
08:03PM 44.4178 -85.6125 178° South 116 133 7,000 240 Climbing Minneapolis Center
08:05PM 44.3811 -85.6128 180° South 127 146 7,000  Level Minneapolis Center
08:06PM 44.3389 -85.6094 177° South 145 167 7,000  Level Minneapolis Center
08:07PM 44.2978 -85.6061 177° South 149 171 7,000  Level Minneapolis Center
08:08PM 44.2567 -85.6039 178° South 148 170 7,000  Level Minneapolis Center
08:09PM 44.2169 -85.6003 176° South 145 167 7,000  Level Minneapolis Center
08:10PM 44.1697 -85.5967 177° South 142 163 7,000  Level Minneapolis Center
08:11PM 44.1306 -85.5961 179° South 141 162 7,000  Level Minneapolis Center
08:12PM 44.0928 -85.5922 176° South 138 159 7,000  Level Minneapolis Center
08:13PM 44.0569 -85.5914 179° South 138 159 7,000  Level Minneapolis Center
08:14PM 44.0169 -85.5886 177° South 142 163 7,000 -240 Level Minneapolis Center
08:15PM 43.9689 -85.5869 179° South 144 166 6,600 -420 Descending Minneapolis Center
08:16PM 43.9247 -85.5867 180° South 154 177 6,200 -300 Descending Minneapolis Center
08:17PM 43.8822 -85.5853 179° South 154 177 6,000 -120 Descending Minneapolis Center
08:18PM 43.8419 -85.5800 175° South 148 170 6,000  Level Minneapolis Center
08:19PM 43.8028 -85.5772 177° South 143 165 6,000 -60 Level Minneapolis Center
08:20PM 43.7636 -85.5744 177° South 141 162 5,900 -60 Descending Minneapolis Center
08:21PM 43.7172 -85.5725 178° South 140 161 5,900  Level Minneapolis Center
08:22PM 43.6786 -85.5708 178° South 140 161 5,900  Level Minneapolis Center
08:23PM 43.6403 -85.5675 176° South 139 160 5,900  Level Minneapolis Center
08:24PM 43.6008 -85.5669 179° South 140 161 5,900  Level Minneapolis Center
08:25PM 43.5617 -85.5625 175° South 142 163 5,900  Level Minneapolis Center
08:26PM 43.5222 -85.5631 181° South 141 162 5,900  Level Minneapolis Center
08:27PM 43.4750 -85.5594 177° South 141 162 5,900  Level Minneapolis Center
08:28PM 43.4364 -85.5561 176° South 140 161 5,900  Level Minneapolis Center
08:29PM 43.3981 -85.5531 177° South 138 159 5,900  Level Minneapolis Center
08:30PM 43.3664 -85.5514 178° South 140 161 5,900  Level Chicago Center
08:31PM 43.3272 -85.5492 178° South 142 163 5,900  Level Chicago Center
08:32PM 43.2872 -85.5458 177° South 143 165 5,900  Level Chicago Center
08:33PM 43.2467 -85.5439 178° South 145 167 5,900  Level Chicago Center
08:34PM 43.2164 -85.5042 136° Southeast 154 177 5,900  Level Chicago Center
08:35PM 43.1903 -85.4528 125° Southeast 162 186 5,900  Level Chicago Center
08:36PM 43.1650 -85.4022 124° Southeast 161 185 5,900  Level Chicago Center
08:37PM 43.1406 -85.3489 122° Southeast 163 188 5,900 -240 Level Chicago Center
08:38PM 43.1003 -85.3078 143° Southeast 158 182 5,500 -480 Descending Chicago Center
08:39PM 43.0597 -85.2900 162° South 153 176 5,000 -540 Descending Chicago Center
08:40PM 43.0172 -85.2761 167° South 155 178 4,400 -600 Descending Chicago Center
08:41PM 42.9747 -85.2686 173° South 155 178 3,800 -600 Descending Chicago Center
08:42PM 42.9336 -85.2819 193° South 153 176 3,200 -600 Descending Chicago Center
08:43PM 42.9044 -85.3203 224° Southwest 151 174 2,600 -300 Descending Chicago Center
08:44PM 42.8931 -85.3811 256° West 145 167 2,600 -360 Level Chicago Center
08:45PM 42.8889 -85.4314 264° West 138 159 1,900 -720 Descending Chicago Center
08:47PM 42.8831 -85.4811 261° West 135 155 1,200 -540 Descending Chicago Center
08:48PM 42.8781 -85.5253 261° West 133 153 900 -300 Descending Chicago Center